Time,TemperatureF,DewpointF,PressureIn,WindDirection,WindDirectionDegrees,WindSpeedMPH,WindSpeedGustMPH,Humidity,HourlyPrecipIn,Conditions,Clouds,dailyrainin,SoftwareType,DateUTC
2013-11-12 00:11:00,29.1,25.2,30.41,North,0,4.5,-999.0,85,0.00,,,0.02,open2300 v1.10,2013-11-12 05:11:00,
2013-11-12 00:21:00,28.9,24.7,30.42,NNE,22,12.5,-999.0,84,0.00,,,0.02,open2300 v1.10,2013-11-12 05:21:00,
2013-11-12 00:31:00,28.9,24.7,30.43,NNE,22,3.8,-999.0,84,0.00,,,0.02,open2300 v1.10,2013-11-12 05:31:00,
2013-11-12 00:41:00,28.9,24.4,30.43,NNE,22,6.9,-999.0,83,0.00,,,0.02,open2300 v1.10,2013-11-12 05:41:00,
2013-11-12 00:51:00,28.9,24.4,30.44,North,0,11.0,-999.0,83,0.00,,,0.02,open2300 v1.10,2013-11-12 05:51:00,
2013-11-12 01:01:00,28.8,24.2,30.44,NNE,22,6.3,-999.0,83,0.00,,,0.02,open2300 v1.10,2013-11-12 06:01:00,
2013-11-12 01:11:00,28.6,23.8,30.44,North,0,3.4,-999.0,82,0.00,,,0.02,open2300 v1.10,2013-11-12 06:11:00,
2013-11-12 01:21:00,28.2,23.1,30.45,North,0,5.6,-999.0,81,0.00,,,0.02,open2300 v1.10,2013-11-12 06:21:00,
2013-11-12 01:31:00,28.0,22.9,30.45,NNE,22,8.5,-999.0,81,0.00,,,0.02,open2300 v1.10,2013-11-12 06:31:00,
2013-11-12 01:41:00,27.9,22.5,30.45,NNE,22,6.9,-999.0,80,0.00,,,0.02,open2300 v1.10,2013-11-12 06:41:00,
2013-11-12 01:51:00,27.7,22.3,30.45,North,0,7.8,-999.0,80,0.00,,,0.02,open2300 v1.10,2013-11-12 06:51:00,
2013-11-12 02:01:00,27.7,22.3,30.46,NNE,22,4.9,-999.0,80,0.00,,,0.02,open2300 v1.10,2013-11-12 07:01:00,
2013-11-12 02:11:00,27.5,22.1,30.46,North,0,3.4,-999.0,80,0.00,,,0.02,open2300 v1.10,2013-11-12 07:11:00,
2013-11-12 02:21:00,27.3,21.6,30.46,North,0,4.5,-999.0,79,0.00,,,0.02,open2300 v1.10,2013-11-12 07:21:00,
2013-11-12 02:31:00,27.1,21.4,30.46,NNE,22,5.8,-999.0,79,0.00,,,0.02,open2300 v1.10,2013-11-12 07:31:00,
2013-11-12 02:41:00,26.8,21.1,30.47,North,0,3.8,-999.0,79,0.00,,,0.02,open2300 v1.10,2013-11-12 07:41:00,
2013-11-12 02:51:00,26.4,20.7,30.47,NNE,22,4.2,-999.0,79,0.00,,,0.02,open2300 v1.10,2013-11-12 07:51:00,
2013-11-12 03:01:00,26.4,20.7,30.48,NNE,22,12.5,-999.0,79,0.00,,,0.02,open2300 v1.10,2013-11-12 08:01:00,
2013-11-12 03:11:00,26.2,20.5,30.48,NNE,22,0.0,-999.0,79,0.00,,,0.02,open2300 v1.10,2013-11-12 08:11:00,
2013-11-12 03:21:00,26.2,20.5,30.48,North,0,7.4,-999.0,79,0.00,,,0.02,open2300 v1.10,2013-11-12 08:21:00,
2013-11-12 03:31:00,26.1,20.4,30.49,North,0,7.2,-999.0,79,0.00,,,0.02,open2300 v1.10,2013-11-12 08:31:00,
2013-11-12 03:41:00,25.7,20.1,30.49,North,0,1.3,-999.0,79,0.00,,,0.02,open2300 v1.10,2013-11-12 08:41:00,
2013-11-12 03:51:00,25.5,19.9,30.49,North,0,4.2,-999.0,79,0.00,,,0.02,open2300 v1.10,2013-11-12 08:51:00,
2013-11-12 04:01:00,25.2,19.3,30.49,North,0,5.4,-999.0,78,0.00,,,0.02,open2300 v1.10,2013-11-12 09:01:00,
2013-11-12 04:11:00,25.0,19.4,30.50,NNE,22,2.5,-999.0,79,0.00,,,0.02,open2300 v1.10,2013-11-12 09:11:00,
2013-11-12 04:21:00,24.6,19.1,30.49,North,0,0.0,-999.0,79,0.00,,,0.02,open2300 v1.10,2013-11-12 09:21:00,
2013-11-12 04:31:00,24.6,19.1,30.50,NNE,22,8.1,-999.0,79,0.00,,,0.02,open2300 v1.10,2013-11-12 09:31:00,
2013-11-12 04:41:00,25.0,19.7,30.50,North,0,6.3,-999.0,80,0.00,,,0.02,open2300 v1.10,2013-11-12 09:41:00,
2013-11-12 04:51:00,25.2,19.9,30.51,North,0,2.7,-999.0,80,0.00,,,0.02,open2300 v1.10,2013-11-12 09:51:00,
2013-11-12 05:01:00,25.3,19.7,30.51,NNE,22,4.9,-999.0,79,0.00,,,0.02,open2300 v1.10,2013-11-12 10:01:00,
2013-11-12 05:11:00,25.3,19.7,30.52,NNE,22,2.7,-999.0,79,0.00,,,0.02,open2300 v1.10,2013-11-12 10:11:00,
2013-11-12 05:21:00,25.3,19.7,30.52,North,0,3.8,-999.0,79,0.00,,,0.02,open2300 v1.10,2013-11-12 10:21:00,
2013-11-12 05:31:00,25.2,19.6,30.52,NNE,22,0.0,-999.0,79,0.00,,,0.02,open2300 v1.10,2013-11-12 10:31:00,
2013-11-12 05:41:00,25.2,19.6,30.53,North,0,3.4,-999.0,79,0.00,,,0.02,open2300 v1.10,2013-11-12 10:41:00,
2013-11-12 05:51:00,25.0,19.4,30.53,North,0,0.0,-999.0,79,0.00,,,0.02,open2300 v1.10,2013-11-12 10:51:00,
2013-11-12 06:01:00,25.0,19.4,30.54,NNE,22,0.0,-999.0,79,0.00,,,0.02,open2300 v1.10,2013-11-12 11:01:00,
2013-11-12 06:11:00,25.0,19.7,30.54,NNE,22,0.0,-999.0,80,0.00,,,0.02,open2300 v1.10,2013-11-12 11:11:00,
2013-11-12 06:21:00,25.0,20.0,30.55,North,0,0.0,-999.0,81,0.00,,,0.02,open2300 v1.10,2013-11-12 11:21:00,
2013-11-12 06:31:00,25.0,20.0,30.55,North,0,0.0,-999.0,81,0.00,,,0.02,open2300 v1.10,2013-11-12 11:31:00,
2013-11-12 06:41:00,24.6,19.7,30.56,North,0,0.0,-999.0,81,0.00,,,0.02,open2300 v1.10,2013-11-12 11:41:00,
2013-11-12 06:51:00,24.6,19.7,30.57,North,0,0.0,-999.0,81,0.00,,,0.02,open2300 v1.10,2013-11-12 11:51:00,
2013-11-12 07:01:00,25.0,20.3,30.57,North,0,0.0,-999.0,82,0.00,,,0.02,open2300 v1.10,2013-11-12 12:01:00,
2013-11-12 07:11:00,24.6,19.9,30.58,North,0,0.0,-999.0,82,0.00,,,0.02,open2300 v1.10,2013-11-12 12:11:00,
2013-11-12 07:21:00,24.6,19.9,30.58,NNE,22,0.0,-999.0,82,0.00,,,0.02,open2300 v1.10,2013-11-12 12:21:00,
2013-11-12 07:31:00,24.6,19.9,30.59,NNE,22,0.0,-999.0,82,0.00,,,0.02,open2300 v1.10,2013-11-12 12:31:00,
2013-11-12 07:41:00,24.6,19.9,30.59,NNE,22,0.0,-999.0,82,0.00,,,0.02,open2300 v1.10,2013-11-12 12:41:00,
2013-11-12 07:51:00,24.6,19.7,30.60,North,0,2.2,-999.0,81,0.00,,,0.02,open2300 v1.10,2013-11-12 12:51:00,
2013-11-12 08:01:00,24.6,19.7,30.60,North,0,3.8,-999.0,81,0.00,,,0.02,open2300 v1.10,2013-11-12 13:01:00,
2013-11-12 08:11:00,24.6,19.7,30.61,NNE,22,0.0,-999.0,81,0.00,,,0.02,open2300 v1.10,2013-11-12 13:11:00,
2013-11-12 08:21:00,25.0,20.0,30.62,North,0,4.0,-999.0,81,0.00,,,0.02,open2300 v1.10,2013-11-12 13:21:00,
2013-11-12 08:31:00,25.2,19.9,30.62,North,0,7.2,-999.0,80,0.00,,,0.02,open2300 v1.10,2013-11-12 13:31:00,
2013-11-12 08:41:00,25.3,20.1,30.62,NNE,22,0.0,-999.0,80,0.00,,,0.02,open2300 v1.10,2013-11-12 13:41:00,
2013-11-12 08:51:00,25.5,20.2,30.63,NNE,22,6.7,-999.0,80,0.00,,,0.02,open2300 v1.10,2013-11-12 13:51:00,
2013-11-12 09:01:00,25.5,19.9,30.63,NNE,22,1.3,-999.0,79,0.00,,,0.02,open2300 v1.10,2013-11-12 14:01:00,
2013-11-12 09:11:00,25.5,19.9,30.63,North,0,2.2,-999.0,79,0.00,,,0.02,open2300 v1.10,2013-11-12 14:11:00,
2013-11-12 09:21:00,25.5,19.6,30.63,NNE,22,4.5,-999.0,78,0.00,,,0.02,open2300 v1.10,2013-11-12 14:21:00,
2013-11-12 09:31:00,25.3,19.4,30.63,North,0,0.0,-999.0,78,0.00,,,0.02,open2300 v1.10,2013-11-12 14:31:00,
2013-11-12 09:41:00,25.5,19.9,30.64,North,0,4.9,-999.0,79,0.00,,,0.02,open2300 v1.10,2013-11-12 14:41:00,
2013-11-12 09:51:00,25.9,20.2,30.64,North,0,1.1,-999.0,79,0.00,,,0.02,open2300 v1.10,2013-11-12 14:51:00,
2013-11-12 10:01:00,26.1,20.4,30.64,North,0,7.2,-999.0,79,0.00,,,0.02,open2300 v1.10,2013-11-12 15:01:00,
2013-11-12 10:11:00,26.4,20.7,30.64,NNE,22,6.9,-999.0,79,0.00,,,0.02,open2300 v1.10,2013-11-12 15:11:00,
2013-11-12 10:21:00,26.6,20.9,30.65,North,0,0.0,-999.0,79,0.00,,,0.02,open2300 v1.10,2013-11-12 15:21:00,
2013-11-12 10:31:00,26.6,20.9,30.64,North,0,4.9,-999.0,79,0.00,,,0.02,open2300 v1.10,2013-11-12 15:31:00,
2013-11-12 10:41:00,27.1,21.4,30.65,NNE,22,4.9,-999.0,79,0.00,,,0.02,open2300 v1.10,2013-11-12 15:41:00,
2013-11-12 10:51:00,27.5,21.8,30.66,North,0,3.8,-999.0,79,0.00,,,0.02,open2300 v1.10,2013-11-12 15:51:00,
2013-11-12 11:01:00,27.7,22.0,30.66,North,0,1.6,-999.0,79,0.00,,,0.02,open2300 v1.10,2013-11-12 16:01:00,
2013-11-12 11:11:00,27.7,22.0,30.66,North,0,0.0,-999.0,79,0.00,,,0.02,open2300 v1.10,2013-11-12 16:11:00,
2013-11-12 11:21:00,27.7,22.0,30.67,North,0,0.0,-999.0,79,0.00,,,0.02,open2300 v1.10,2013-11-12 16:21:00,
2013-11-12 11:31:00,27.7,22.0,30.67,North,0,0.0,-999.0,79,0.00,,,0.02,open2300 v1.10,2013-11-12 16:31:00,
2013-11-12 11:41:00,27.5,21.8,30.67,North,0,2.9,-999.0,79,0.00,,,0.02,open2300 v1.10,2013-11-12 16:41:00,
2013-11-12 11:51:00,27.7,22.3,30.66,North,0,0.0,-999.0,80,0.00,,,0.02,open2300 v1.10,2013-11-12 16:51:00,
2013-11-12 12:01:00,27.7,22.3,30.66,North,0,0.0,-999.0,80,0.00,,,0.02,open2300 v1.10,2013-11-12 17:01:00,
2013-11-12 12:11:00,27.7,22.6,30.66,NNE,22,6.3,-999.0,81,0.00,,,0.02,open2300 v1.10,2013-11-12 17:11:00,
2013-11-12 12:21:00,27.7,22.6,30.66,North,0,1.8,-999.0,81,0.00,,,0.02,open2300 v1.10,2013-11-12 17:21:00,
2013-11-12 12:31:00,28.2,23.4,30.65,North,0,1.6,-999.0,82,0.00,,,0.02,open2300 v1.10,2013-11-12 17:31:00,
2013-11-12 12:41:00,28.6,23.8,30.65,North,0,0.0,-999.0,82,0.00,,,0.02,open2300 v1.10,2013-11-12 17:41:00,
2013-11-12 12:51:00,29.1,24.3,30.65,NNE,22,1.1,-999.0,82,0.00,,,0.02,open2300 v1.10,2013-11-12 17:51:00,
2013-11-12 13:01:00,30.0,25.2,30.65,North,0,3.4,-999.0,82,0.00,,,0.02,open2300 v1.10,2013-11-12 18:01:00,
2013-11-12 13:11:00,30.4,25.3,30.65,North,0,4.7,-999.0,81,0.00,,,0.02,open2300 v1.10,2013-11-12 18:11:00,
2013-11-12 13:21:00,30.7,25.6,30.64,North,0,3.1,-999.0,81,0.00,,,0.02,open2300 v1.10,2013-11-12 18:21:00,
2013-11-12 13:31:00,31.3,25.9,30.64,NNE,22,3.6,-999.0,80,0.00,,,0.02,open2300 v1.10,2013-11-12 18:31:00,
2013-11-12 13:41:00,31.6,25.9,30.64,North,0,5.1,-999.0,79,0.00,,,0.02,open2300 v1.10,2013-11-12 18:41:00,
2013-11-12 13:51:00,31.8,26.1,30.64,North,0,0.0,-999.0,79,0.00,,,0.02,open2300 v1.10,2013-11-12 18:51:00,
2013-11-12 14:01:00,31.8,25.8,30.64,North,0,0.0,-999.0,78,0.00,,,0.02,open2300 v1.10,2013-11-12 19:01:00,
2013-11-12 14:11:00,32.2,26.4,30.64,North,0,6.5,-999.0,79,0.00,,,0.02,open2300 v1.10,2013-11-12 19:11:00,
2013-11-12 14:21:00,32.2,25.8,30.64,North,0,2.2,-999.0,77,0.00,,,0.02,open2300 v1.10,2013-11-12 19:21:00,
2013-11-12 14:31:00,32.7,26.3,30.64,North,0,0.0,-999.0,77,0.00,,,0.02,open2300 v1.10,2013-11-12 19:31:00,
2013-11-12 14:41:00,32.7,26.3,30.63,NNE,22,0.0,-999.0,77,0.00,,,0.02,open2300 v1.10,2013-11-12 19:41:00,
2013-11-12 14:51:00,32.5,25.8,30.63,North,0,0.0,-999.0,76,0.00,,,0.02,open2300 v1.10,2013-11-12 19:51:00,
2013-11-12 15:01:00,32.4,25.6,30.64,North,0,6.0,-999.0,76,0.00,,,0.02,open2300 v1.10,2013-11-12 20:01:00,
2013-11-12 15:11:00,32.5,25.8,30.64,North,0,0.0,-999.0,76,0.00,,,0.02,open2300 v1.10,2013-11-12 20:11:00,
2013-11-12 15:21:00,32.2,25.1,30.64,NNE,22,6.5,-999.0,75,0.00,,,0.02,open2300 v1.10,2013-11-12 20:21:00,
2013-11-12 15:31:00,32.0,25.0,30.64,North,0,2.2,-999.0,75,0.00,,,0.02,open2300 v1.10,2013-11-12 20:31:00,
2013-11-12 15:41:00,31.8,24.8,30.64,North,0,0.0,-999.0,75,0.00,,,0.02,open2300 v1.10,2013-11-12 20:41:00,
2013-11-12 15:51:00,31.8,24.8,30.64,North,0,0.0,-999.0,75,0.00,,,0.02,open2300 v1.10,2013-11-12 20:51:00,
2013-11-12 16:01:00,32.4,25.0,30.64,North,0,0.0,-999.0,74,0.00,,,0.02,open2300 v1.10,2013-11-12 21:01:00,
2013-11-12 16:11:00,32.7,24.7,30.64,North,0,7.8,-999.0,72,0.00,,,0.02,open2300 v1.10,2013-11-12 21:11:00,
2013-11-12 16:21:00,32.5,24.2,30.64,North,0,0.0,-999.0,71,0.00,,,0.02,open2300 v1.10,2013-11-12 21:21:00,
2013-11-12 16:31:00,32.2,23.5,30.64,North,0,0.0,-999.0,70,0.00,,,0.02,open2300 v1.10,2013-11-12 21:31:00,
2013-11-12 16:41:00,31.6,23.3,30.64,North,0,0.0,-999.0,71,0.00,,,0.02,open2300 v1.10,2013-11-12 21:41:00,
2013-11-12 16:51:00,31.3,23.0,30.64,North,0,2.5,-999.0,71,0.00,,,0.02,open2300 v1.10,2013-11-12 21:51:00,
2013-11-12 17:01:00,30.9,22.6,30.64,North,0,0.0,-999.0,71,0.00,,,0.02,open2300 v1.10,2013-11-12 22:01:00,
2013-11-12 17:11:00,30.7,22.4,30.64,North,0,0.0,-999.0,71,0.00,,,0.02,open2300 v1.10,2013-11-12 22:11:00,
2013-11-12 17:21:00,30.6,22.2,30.64,North,0,0.0,-999.0,71,0.00,,,0.02,open2300 v1.10,2013-11-12 22:21:00,
2013-11-12 17:31:00,30.2,21.9,30.63,North,0,0.0,-999.0,71,0.00,,,0.02,open2300 v1.10,2013-11-12 22:31:00,
2013-11-12 17:41:00,30.0,21.7,30.63,North,0,0.0,-999.0,71,0.00,,,0.02,open2300 v1.10,2013-11-12 22:41:00,
2013-11-12 17:51:00,29.7,21.7,30.63,North,0,0.0,-999.0,72,0.00,,,0.02,open2300 v1.10,2013-11-12 22:51:00,
2013-11-12 18:01:00,29.1,21.2,30.63,North,0,0.0,-999.0,72,0.00,,,0.02,open2300 v1.10,2013-11-12 23:01:00,
2013-11-12 18:11:00,28.9,21.3,30.63,North,0,0.0,-999.0,73,0.00,,,0.02,open2300 v1.10,2013-11-12 23:11:00,
2013-11-12 18:21:00,28.8,21.5,30.63,North,0,0.0,-999.0,74,0.00,,,0.02,open2300 v1.10,2013-11-12 23:21:00,
2013-11-12 18:31:00,28.4,21.2,30.63,WNW,292,0.0,-999.0,74,0.00,,,0.02,open2300 v1.10,2013-11-12 23:31:00,
2013-11-12 18:41:00,28.2,21.3,30.63,North,0,0.0,-999.0,75,0.00,,,0.02,open2300 v1.10,2013-11-12 23:41:00,
2013-11-12 18:51:00,28.0,21.1,30.63,NNE,22,0.0,-999.0,75,0.00,,,0.02,open2300 v1.10,2013-11-12 23:51:00,
2013-11-12 19:01:00,27.7,20.8,30.63,North,0,0.0,-999.0,75,0.00,,,0.02,open2300 v1.10,2013-11-13 00:01:00,
2013-11-12 19:11:00,27.5,20.9,30.64,North,0,0.0,-999.0,76,0.00,,,0.02,open2300 v1.10,2013-11-13 00:11:00,
2013-11-12 19:21:00,27.3,20.7,30.64,North,0,0.0,-999.0,76,0.00,,,0.02,open2300 v1.10,2013-11-13 00:21:00,
2013-11-12 19:31:00,27.1,20.5,30.64,North,0,0.0,-999.0,76,0.00,,,0.02,open2300 v1.10,2013-11-13 00:31:00,
2013-11-12 19:41:00,26.8,20.2,30.64,North,0,0.0,-999.0,76,0.00,,,0.02,open2300 v1.10,2013-11-13 00:41:00,
2013-11-12 19:51:00,26.6,20.0,30.64,North,0,0.0,-999.0,76,0.00,,,0.02,open2300 v1.10,2013-11-13 00:51:00,
2013-11-12 20:01:00,26.4,19.8,30.64,North,0,0.0,-999.0,76,0.00,,,0.02,open2300 v1.10,2013-11-13 01:01:00,
2013-11-12 20:11:00,26.2,19.6,30.64,North,0,0.0,-999.0,76,0.00,,,0.02,open2300 v1.10,2013-11-13 01:11:00,
2013-11-12 20:21:00,26.1,19.8,30.64,North,0,0.0,-999.0,77,0.00,,,0.02,open2300 v1.10,2013-11-13 01:21:00,
2013-11-12 20:31:00,25.7,19.4,30.63,North,0,0.0,-999.0,77,0.00,,,0.02,open2300 v1.10,2013-11-13 01:31:00,
2013-11-12 20:41:00,25.5,19.3,30.63,North,0,0.0,-999.0,77,0.00,,,0.02,open2300 v1.10,2013-11-13 01:41:00,
2013-11-12 20:51:00,25.3,19.1,30.63,North,0,0.0,-999.0,77,0.00,,,0.02,open2300 v1.10,2013-11-13 01:51:00,
2013-11-12 21:01:00,25.0,18.8,30.63,North,0,0.0,-999.0,77,0.00,,,0.00,open2300 v1.10,2013-11-13 02:01:00,
2013-11-12 21:11:00,24.6,18.4,30.64,North,0,0.0,-999.0,77,0.00,,,0.00,open2300 v1.10,2013-11-13 02:11:00,
2013-11-12 21:21:00,24.4,18.6,30.64,North,0,0.0,-999.0,78,0.00,,,0.00,open2300 v1.10,2013-11-13 02:21:00,
2013-11-12 21:31:00,24.4,18.6,30.64,North,0,0.0,-999.0,78,0.00,,,0.00,open2300 v1.10,2013-11-13 02:31:00,
2013-11-12 21:41:00,24.1,18.2,30.64,North,0,0.0,-999.0,78,0.00,,,0.00,open2300 v1.10,2013-11-13 02:41:00,
2013-11-12 21:51:00,23.9,18.0,30.64,North,0,0.0,-999.0,78,0.00,,,0.00,open2300 v1.10,2013-11-13 02:51:00,
2013-11-12 22:01:00,23.7,17.9,30.64,North,0,0.0,-999.0,78,0.00,,,0.00,open2300 v1.10,2013-11-13 03:01:00,
2013-11-12 22:11:00,23.7,17.9,30.64,North,0,0.0,-999.0,78,0.00,,,0.00,open2300 v1.10,2013-11-13 03:11:00,
2013-11-12 22:21:00,23.5,18.0,30.64,North,0,0.0,-999.0,79,0.00,,,0.00,open2300 v1.10,2013-11-13 03:21:00,
2013-11-12 22:31:00,23.5,18.0,30.64,North,0,0.0,-999.0,79,0.00,,,0.00,open2300 v1.10,2013-11-13 03:31:00,
2013-11-12 22:41:00,23.5,18.0,30.63,North,0,0.0,-999.0,79,0.00,,,0.00,open2300 v1.10,2013-11-13 03:41:00,
2013-11-12 22:51:00,23.5,18.0,30.62,North,0,0.0,-999.0,79,0.00,,,0.00,open2300 v1.10,2013-11-13 03:51:00,
2013-11-12 23:01:00,23.2,17.6,30.62,North,0,0.0,-999.0,79,0.00,,,0.00,open2300 v1.10,2013-11-13 04:01:00,
2013-11-12 23:11:00,22.6,16.8,30.62,North,0,0.0,-999.0,78,0.00,,,0.00,open2300 v1.10,2013-11-13 04:11:00,
2013-11-12 23:21:00,22.3,16.5,30.62,North,0,0.0,-999.0,78,0.00,,,0.00,open2300 v1.10,2013-11-13 04:21:00,
2013-11-12 23:31:00,22.3,16.8,30.63,North,0,0.0,-999.0,79,0.00,,,0.00,open2300 v1.10,2013-11-13 04:31:00,
2013-11-12 23:41:00,22.3,16.8,30.63,North,0,0.0,-999.0,79,0.00,,,0.00,open2300 v1.10,2013-11-13 04:41:00,
2013-11-12 23:51:00,22.3,17.1,30.63,WNW,292,0.0,-999.0,80,0.00,,,0.00,open2300 v1.10,2013-11-13 04:51:00,